PWSweather.com
Personal Weather Stations
Station Observations
KCAFRAZI5
West End Drive Area, Frazier Park, CA 93225

West End Drive AreaFrazier Park, CA 93225

Lat: 34.82109, Lon: -118.96053

Elevation: 4940

Station Type: Davis Vantage Pro 2

http://www.fpweather.com

Latest ConditionsUpdated 2:00:04 PM PST Saturday, Feb 23, 2019
Currently Today's Max Today's Min Today's Average
Temperature 39.9°F4.4°C 42.4°F5.8°C 9.1°F-12.7°C 22.6°F-5.2°C
Dew Point 17.0°F-8.3°C 17.0°F-8.3°C -4.9°F-20.5°C 1.6°F-16.9°C
Winds 8.0 mph NNW12.9 kmh NNW 13.0 mph -20.9 kmh - - 6.5 mph 10.5 kmh
Wind Gusts 9.0 mph14.5 kmh 15.0 mph24.1 kmh - -
Humidity 39% 58% 15% 42%
Pressure 30.25 in1024.4 mb 30.38 in1028.8 mb 30.19 in1022.4 mb -
Hour Temp Dew Point Humidity Winds Wind Gusts Pressure Precip Precip Rate Daily Precip Total
02:00 PM 39.9°F4.4°C 17.0°F-8.3°C 39% 8.0 mph NNW12.9 kmh NNW 9.0 mph14.5 kmh 30.25 in1024.4 mb 0.01 in0.3 mm 0.00 in0.0 mm 0.03 in0.8 mm
01:45 PM 40.5°F4.7°C 16.9°F-8.4°C 38% 5.0 mph NE8.0 kmh NE 10.0 mph16.1 kmh 30.26 in1024.7 mb 0.01 in0.3 mm 0.00 in0.0 mm 0.03 in0.8 mm
01:30 PM 40.8°F4.9°C 13.9°F-10.1°C 33% 4.0 mph NNW6.4 kmh NNW 10.0 mph16.1 kmh 30.26 in1024.7 mb 0.01 in0.3 mm 0.00 in0.0 mm 0.03 in0.8 mm
01:15 PM 41.2°F5.1°C 14.3°F-9.8°C 33% 6.0 mph N9.7 kmh N 11.0 mph17.7 kmh 30.26 in1024.7 mb 0.01 in0.3 mm 0.00 in0.0 mm 0.03 in0.8 mm
01:00 PM 41.5°F5.3°C 13.1°F-10.5°C 31% 5.0 mph NE8.0 kmh NE 11.0 mph17.7 kmh 30.26 in1024.7 mb 0.01 in0.3 mm 0.00 in0.0 mm 0.03 in0.8 mm
12:45 PM 41.4°F5.2°C 11.5°F-11.4°C 29% 5.0 mph N8.0 kmh N 12.0 mph19.3 kmh 30.27 in1025.1 mb 0.02 in0.5 mm 0.04 in1.0 mm 0.03 in0.8 mm
12:30 PM 42.2°F5.7°C 8.0°F-13.3°C 24% 3.0 mph NNE4.8 kmh NNE 13.0 mph20.9 kmh 30.28 in1025.4 mb 0.01 in0.3 mm 0.00 in0.0 mm 0.02 in0.5 mm
12:15 PM 41.9°F5.5°C 8.7°F-12.9°C 25% 3.0 mph N4.8 kmh N 11.0 mph17.7 kmh 30.27 in1025.1 mb 0.01 in0.3 mm 0.00 in0.0 mm 0.02 in0.5 mm
12:00 PM 42.4°F5.8°C 10.8°F-11.8°C 27% 4.0 mph N6.4 kmh N 7.0 mph11.3 kmh 30.27 in1025.1 mb 0.01 in0.3 mm 0.00 in0.0 mm 0.02 in0.5 mm
11:45 AM 40.9°F4.9°C 8.7°F-12.9°C 26% 4.0 mph N6.4 kmh N 9.0 mph14.5 kmh 30.27 in1025.1 mb 0.01 in0.3 mm 0.00 in0.0 mm 0.02 in0.5 mm
11:30 AM 41.1°F5.1°C 9.7°F-12.4°C 27% 3.0 mph N4.8 kmh N 7.0 mph11.3 kmh 30.28 in1025.4 mb 0.01 in0.3 mm 0.00 in0.0 mm 0.02 in0.5 mm
11:15 AM 40.1°F4.5°C 8.8°F-12.9°C 27% 2.0 mph N3.2 kmh N 10.0 mph16.1 kmh 30.27 in1025.1 mb 0.02 in0.5 mm 0.00 in0.0 mm 0.02 in0.5 mm
11:00 AM 39.7°F4.3°C 6.8°F-14.0°C 25% 5.0 mph N8.0 kmh N 7.0 mph11.3 kmh 30.27 in1025.1 mb 0.02 in0.5 mm 0.01 in0.3 mm 0.02 in0.5 mm
10:45 AM 40.1°F4.5°C 8.8°F-12.9°C 27% 6.0 mph 9.7 kmh 7.0 mph11.3 kmh 30.27 in1025.1 mb 0.01 in0.3 mm 0.00 in0.0 mm 0.01 in0.3 mm
10:30 AM 39.4°F4.1°C 7.4°F-13.7°C 26% 2.0 mph N3.2 kmh N 7.0 mph11.3 kmh 30.26 in1024.7 mb 0.01 in0.3 mm 0.04 in1.0 mm 0.01 in0.3 mm
10:15 AM 39.5°F4.2°C 6.6°F-14.1°C 25% 3.0 mph NNE4.8 kmh NNE 6.0 mph9.7 kmh 30.26 in1024.7 mb 0.00 in0.0 mm 0.00 in0.0 mm 0.00 in0.0 mm
10:00 AM 38.9°F3.8°C 6.1°F-14.4°C 25% 4.0 mph N6.4 kmh N 6.0 mph9.7 kmh 30.25 in1024.4 mb 0.00 in0.0 mm 0.00 in0.0 mm 0.00 in0.0 mm
09:45 AM 38.8°F3.8°C 0.1°F-17.7°C 19% 3.0 mph N4.8 kmh N 6.0 mph9.7 kmh 30.26 in1024.7 mb 0.00 in0.0 mm 0.00 in0.0 mm 0.00 in0.0 mm
09:30 AM 38.8°F3.8°C -4.9°F-20.5°C 15% 1.0 mph 1.6 kmh 5.0 mph8.0 kmh 30.29 in1025.7 mb 0.00 in0.0 mm 0.00 in0.0 mm 0.00 in0.0 mm
09:15 AM 35.2°F1.8°C -0.8°F-18.2°C 21% Calm Calm 3.0 mph4.8 kmh 30.29 in1025.7 mb 0.00 in0.0 mm 0.00 in0.0 mm 0.00 in0.0 mm
09:00 AM 32.1°F0.1°C -0.6°F-18.1°C 24% 4.0 mph SSE6.4 kmh SSE 5.0 mph8.0 kmh 30.32 in1026.8 mb 0.00 in0.0 mm 0.00 in0.0 mm 0.00 in0.0 mm
08:45 AM 28.9°F-1.7°C -1.7°F-18.7°C 26% 3.0 mph SSE4.8 kmh SSE 7.0 mph11.3 kmh 30.33 in1027.1 mb 0.00 in0.0 mm 0.00 in0.0 mm 0.00 in0.0 mm
08:30 AM 25.9°F-3.4°C -0.6°F-18.1°C 31% 3.0 mph S4.8 kmh S 7.0 mph11.3 kmh 30.36 in1028.1 mb 0.00 in0.0 mm 0.00 in0.0 mm 0.00 in0.0 mm
08:15 AM 22.5°F-5.3°C 0.7°F-17.4°C 38% 4.0 mph S6.4 kmh S 8.0 mph12.9 kmh 30.36 in1028.1 mb 0.00 in0.0 mm 0.00 in0.0 mm 0.00 in0.0 mm
08:00 AM 19.1°F-7.2°C -0.7°F-18.2°C 41% 4.0 mph S6.4 kmh S 10.0 mph16.1 kmh 30.36 in1028.1 mb 0.00 in0.0 mm 0.00 in0.0 mm 0.00 in0.0 mm
07:45 AM 15.7°F-9.1°C -1.9°F-18.8°C 45% 7.0 mph SSE11.3 kmh SSE 9.0 mph14.5 kmh 30.38 in1028.8 mb 0.00 in0.0 mm 0.00 in0.0 mm 0.00 in0.0 mm
07:30 AM 14.2°F-9.9°C -3.2°F-19.6°C 45% 10.0 mph SE16.1 kmh SE 13.0 mph20.9 kmh 30.38 in1028.8 mb 0.00 in0.0 mm 0.00 in0.0 mm 0.00 in0.0 mm
07:15 AM 12.0°F-11.1°C -3.5°F-19.7°C 49% 5.0 mph SSW8.0 kmh SSW 12.0 mph19.3 kmh 30.36 in1028.1 mb 0.00 in0.0 mm 0.00 in0.0 mm 0.00 in0.0 mm
07:00 AM 11.7°F-11.3°C -3.3°F-19.6°C 50% 11.0 mph SSW17.7 kmh SSW 13.0 mph20.9 kmh 30.35 in1027.8 mb 0.00 in0.0 mm 0.00 in0.0 mm 0.00 in0.0 mm
06:45 AM 11.2°F-11.6°C -3.4°F-19.7°C 51% 10.0 mph S16.1 kmh S 11.0 mph17.7 kmh 30.35 in1027.8 mb 0.00 in0.0 mm 0.00 in0.0 mm 0.00 in0.0 mm
06:30 AM 11.2°F-11.6°C -3.8°F-19.9°C 50% 7.0 mph S11.3 kmh S 13.0 mph20.9 kmh 30.35 in1027.8 mb 0.00 in0.0 mm 0.00 in0.0 mm 0.00 in0.0 mm
06:15 AM 10.7°F-11.8°C -3.9°F-19.9°C 51% 8.0 mph S12.9 kmh S 12.0 mph19.3 kmh 30.31 in1026.4 mb 0.00 in0.0 mm 0.00 in0.0 mm 0.00 in0.0 mm
06:00 AM 12.0°F-11.1°C -4.4°F-20.2°C 47% 6.0 mph S9.7 kmh S 11.0 mph17.7 kmh 30.32 in1026.8 mb 0.00 in0.0 mm 0.00 in0.0 mm 0.00 in0.0 mm
05:45 AM 10.8°F-11.8°C -3.8°F-19.9°C 51% 5.0 mph S8.0 kmh S 9.0 mph14.5 kmh 30.32 in1026.8 mb 0.00 in0.0 mm 0.00 in0.0 mm 0.00 in0.0 mm
05:30 AM 9.6°F-12.4°C -3.7°F-19.8°C 54% 13.0 mph SSE20.9 kmh SSE 15.0 mph24.1 kmh 30.33 in1027.1 mb 0.00 in0.0 mm 0.00 in0.0 mm 0.00 in0.0 mm
05:15 AM 9.1°F-12.7°C -3.4°F-19.7°C 56% 11.0 mph SSE17.7 kmh SSE 11.0 mph17.7 kmh 30.29 in1025.7 mb 0.00 in0.0 mm 0.00 in0.0 mm 0.00 in0.0 mm
05:00 AM 10.0°F-12.2°C -2.9°F-19.4°C 55% 7.0 mph S11.3 kmh S 11.0 mph17.7 kmh 30.29 in1025.7 mb 0.00 in0.0 mm 0.00 in0.0 mm 0.00 in0.0 mm
04:45 AM 9.6°F-12.4°C -3.3°F-19.6°C 55% 8.0 mph S12.9 kmh S 13.0 mph20.9 kmh 30.28 in1025.4 mb 0.00 in0.0 mm 0.00 in0.0 mm 0.00 in0.0 mm
04:30 AM 9.6°F-12.4°C -2.9°F-19.4°C 56% 10.0 mph S16.1 kmh S 13.0 mph20.9 kmh 30.28 in1025.4 mb 0.00 in0.0 mm 0.00 in0.0 mm 0.00 in0.0 mm
04:15 AM 9.6°F-12.4°C -3.3°F-19.6°C 55% 12.0 mph SSE19.3 kmh SSE 14.0 mph22.5 kmh 30.24 in1024.0 mb 0.00 in0.0 mm 0.00 in0.0 mm 0.00 in0.0 mm
04:00 AM 11.7°F-11.3°C -2.5°F-19.2°C 52% 9.0 mph S14.5 kmh S 11.0 mph17.7 kmh 30.25 in1024.4 mb 0.00 in0.0 mm 0.00 in0.0 mm 0.00 in0.0 mm
03:45 AM 10.3°F-12.1°C -3.8°F-19.9°C 52% 12.0 mph SSE19.3 kmh SSE 14.0 mph22.5 kmh 30.24 in1024.0 mb 0.00 in0.0 mm 0.00 in0.0 mm 0.00 in0.0 mm
03:30 AM 10.1°F-12.2°C -2.8°F-19.3°C 55% 7.0 mph S11.3 kmh S 10.0 mph16.1 kmh 30.25 in1024.4 mb 0.00 in0.0 mm 0.00 in0.0 mm 0.00 in0.0 mm
03:15 AM 10.5°F-11.9°C -2.5°F-19.2°C 55% 9.0 mph S14.5 kmh S 10.0 mph16.1 kmh 30.26 in1024.7 mb 0.00 in0.0 mm 0.00 in0.0 mm 0.00 in0.0 mm
03:00 AM 11.0°F-11.7°C -2.4°F-19.1°C 54% 7.0 mph S11.3 kmh S 11.0 mph17.7 kmh 30.26 in1024.7 mb 0.00 in0.0 mm 0.00 in0.0 mm 0.00 in0.0 mm
02:45 AM 9.8°F-12.3°C -2.7°F-19.3°C 56% 10.0 mph SSE16.1 kmh SSE 14.0 mph22.5 kmh 30.27 in1025.1 mb 0.00 in0.0 mm 0.00 in0.0 mm 0.00 in0.0 mm
02:30 AM 11.0°F-11.7°C -2.4°F-19.1°C 54% 10.0 mph S16.1 kmh S 13.0 mph20.9 kmh 30.28 in1025.4 mb 0.00 in0.0 mm 0.00 in0.0 mm 0.00 in0.0 mm
02:15 AM 10.5°F-11.9°C -2.5°F-19.2°C 55% 12.0 mph SSE19.3 kmh SSE 14.0 mph22.5 kmh 30.26 in1024.7 mb 0.00 in0.0 mm 0.00 in0.0 mm 0.00 in0.0 mm
02:00 AM 10.7°F-11.8°C -1.5°F-18.6°C 57% 7.0 mph S11.3 kmh S 12.0 mph19.3 kmh 30.26 in1024.7 mb 0.00 in0.0 mm 0.00 in0.0 mm 0.00 in0.0 mm
01:45 AM 11.2°F-11.6°C -1.4°F-18.6°C 56% 6.0 mph S9.7 kmh S 12.0 mph19.3 kmh 30.25 in1024.4 mb 0.00 in0.0 mm 0.00 in0.0 mm 0.00 in0.0 mm
01:30 AM 11.9°F-11.2°C -0.8°F-18.2°C 56% 5.0 mph S8.0 kmh S 10.0 mph16.1 kmh 30.26 in1024.7 mb 0.00 in0.0 mm 0.00 in0.0 mm 0.00 in0.0 mm
01:15 AM 11.0°F-11.7°C -1.2°F-18.4°C 57% 11.0 mph S17.7 kmh S 15.0 mph24.1 kmh 30.22 in1023.4 mb 0.00 in0.0 mm 0.00 in0.0 mm 0.00 in0.0 mm
01:00 AM 11.2°F-11.6°C -1.1°F-18.4°C 57% 10.0 mph SSE16.1 kmh SSE 12.0 mph19.3 kmh 30.23 in1023.7 mb 0.00 in0.0 mm 0.00 in0.0 mm 0.00 in0.0 mm
12:45 AM 11.3°F-11.5°C -0.6°F-18.1°C 58% 10.0 mph S16.1 kmh S 14.0 mph22.5 kmh 30.21 in1023.0 mb 0.00 in0.0 mm 0.00 in0.0 mm 0.00 in0.0 mm
12:30 AM 12.5°F-10.8°C -0.6°F-18.1°C 55% 6.0 mph S9.7 kmh S 13.0 mph20.9 kmh 30.21 in1023.0 mb 0.00 in0.0 mm 0.00 in0.0 mm 0.00 in0.0 mm
12:15 AM 12.5°F-10.8°C -0.2°F-17.9°C 56% 10.0 mph SSE16.1 kmh SSE 15.0 mph24.1 kmh 30.20 in1022.7 mb 0.00 in0.0 mm 0.00 in0.0 mm 0.00 in0.0 mm
12:00 AM 12.9°F-10.6°C 0.6°F-17.4°C 57% 5.0 mph SSE8.0 kmh SSE 9.0 mph14.5 kmh 30.19 in1022.4 mb 0.00 in0.0 mm 0.00 in0.0 mm 0.00 in0.0 mm